TimePDT,TemperatureF,Dew PointF,Humidity,Sea Level PressureIn,VisibilityMPH,Wind Direction,Wind SpeedMPH,Gust SpeedMPH,PrecipitationIn,Events,Conditions,WindDirDegrees,DateUTC
12:51 AM,59.0,45.0,60,29.96,10.0,Calm,Calm,-,N/A,,Overcast,0,2013-04-25 07:51:00
1:17 AM,57.2,44.6,63,29.97,10.0,Calm,Calm,-,N/A,,Overcast,0,2013-04-25 08:17:00
1:26 AM,57.2,44.6,63,29.97,10.0,SW,3.5,-,N/A,,Overcast,230,2013-04-25 08:26:00
1:51 AM,57.9,46.0,65,29.96,10.0,South,5.8,-,N/A,,Overcast,170,2013-04-25 08:51:00
2:51 AM,57.9,45.0,62,29.94,10.0,Calm,Calm,-,N/A,,Overcast,0,2013-04-25 09:51:00
3:51 AM,57.9,45.0,62,29.95,10.0,Calm,Calm,-,N/A,,Overcast,0,2013-04-25 10:51:00
4:51 AM,57.0,46.9,69,29.97,10.0,South,4.6,-,N/A,,Overcast,180,2013-04-25 11:51:00
5:51 AM,57.9,45.0,62,29.98,10.0,West,3.5,-,N/A,,Overcast,280,2013-04-25 12:51:00
6:03 AM,57.2,44.6,63,29.99,10.0,Calm,Calm,-,N/A,,Overcast,0,2013-04-25 13:03:00
6:17 AM,57.2,44.6,63,30.00,10.0,Calm,Calm,-,N/A,,Overcast,0,2013-04-25 13:17:00
6:51 AM,57.9,45.0,62,30.00,10.0,Calm,Calm,-,N/A,,Mostly Cloudy,0,2013-04-25 13:51:00
7:51 AM,57.9,46.0,65,30.02,10.0,Calm,Calm,-,N/A,,Mostly Cloudy,0,2013-04-25 14:51:00
8:51 AM,61.0,45.0,56,30.03,10.0,Calm,Calm,-,N/A,,Scattered Clouds,0,2013-04-25 15:51:00
9:51 AM,64.9,43.0,45,30.05,10.0,ESE,3.5,-,N/A,,Clear,110,2013-04-25 16:51:00
10:51 AM,66.0,44.1,45,30.05,10.0,Calm,Calm,-,N/A,,Partly Cloudy,0,2013-04-25 17:51:00
11:51 AM,68.0,44.1,42,30.04,10.0,Variable,3.5,-,N/A,,Mostly Cloudy,0,2013-04-25 18:51:00
1:51 PM,71.1,43.0,36,30.02,10.0,SSE,8.1,16.1,N/A,,Clear,160,2013-04-25 20:51:00
2:51 PM,71.1,43.0,36,30.02,10.0,Variable,4.6,-,N/A,,Clear,0,2013-04-25 21:51:00
3:51 PM,73.0,42.1,33,30.01,10.0,SSE,8.1,-,N/A,,Clear,150,2013-04-25 22:51:00
4:51 PM,72.0,43.0,35,30.00,10.0,West,5.8,-,N/A,,Clear,270,2013-04-25 23:51:00
5:51 PM,70.0,44.1,39,30.00,10.0,WSW,5.8,-,N/A,,Clear,250,2013-04-26 00:51:00
6:51 PM,68.0,43.0,40,30.01,10.0,West,5.8,-,N/A,,Clear,280,2013-04-26 01:51:00
7:51 PM,64.9,45.0,48,30.03,10.0,West,5.8,-,N/A,,Clear,270,2013-04-26 02:51:00
8:51 PM,62.1,45.0,53,30.06,10.0,West,4.6,-,N/A,,Clear,270,2013-04-26 03:51:00
9:51 PM,61.0,43.0,52,30.08,10.0,Variable,3.5,-,N/A,,Clear,0,2013-04-26 04:51:00
10:51 PM,60.1,44.1,55,30.09,10.0,Calm,Calm,-,N/A,,Clear,0,2013-04-26 05:51:00
11:51 PM,59.0,45.0,60,30.10,10.0,Calm,Calm,-,N/A,,Clear,0,2013-04-26 06:51:00